Time;durP1;ratioP1;P1;durP2;ratioP2;P2;SDS_P1;SDS_P2;PMS_P1;PMS_P2;Temp;Humidity;BMP_temperature;BMP_pressure;BME280_temperature;BME280_humidity;BME280_pressure;Samples;Min_cycle;Max_cycle;Signal;HPM_P1;HPM_P2
2021/08/17 00:04:38;;;;;;;;;22.00;20.25;;;;;17.82;55.26;101440.19;5055285;28;45606;-83
2021/08/17 00:07:03;;;;;;;;;25.50;22.25;;;;;17.78;54.95;101444.09;5055671;28;45629;-84
2021/08/17 00:09:30;;;;;;;;;26.25;22.75;;;;;17.86;55.37;101463.66;5055771;28;45728;-89
2021/08/17 00:11:56;;;;;;;;;23.00;21.25;;;;;17.82;55.23;101464.03;5056548;28;45607;-89
2021/08/17 00:14:21;;;;;;;;;23.75;21.00;;;;;17.64;55.15;101425.91;5056344;28;45568;-83
2021/08/17 00:16:47;;;;;;;;;23.25;22.00;;;;;17.66;55.48;101434.56;5056247;28;46593;-90
2021/08/17 00:19:12;;;;;;;;;23.50;20.50;;;;;17.83;55.57;101455.13;5056613;28;45995;-86
2021/08/17 00:21:38;;;;;;;;;21.25;20.50;;;;;17.79;55.81;101453.72;5056874;28;45649;-89
2021/08/17 00:24:04;;;;;;;;;23.75;20.25;;;;;17.70;55.60;101434.19;5056596;28;45575;-86
2021/08/17 00:26:29;;;;;;;;;24.50;21.25;;;;;17.57;55.41;101414.97;5056014;28;46774;-85
2021/08/17 00:28:54;;;;;;;;;23.75;20.25;;;;;17.80;55.85;101447.44;5057614;28;46121;-85
2021/08/17 00:34:41;;;;;;;;;19.00;18.00;;;;;17.66;55.50;101440.69;5062925;28;45743;-86
2021/08/17 00:37:07;;;;;;;;;23.50;20.00;;;;;17.46;56.15;101412.41;5063067;28;45654;-85
2021/08/17 00:39:32;;;;;;;;;20.00;18.75;;;;;17.58;55.88;101433.41;5058271;28;45664;-85
2021/08/17 00:41:58;;;;;;;;;19.75;19.00;;;;;17.69;56.48;101458.16;5056752;28;45768;-88
2021/08/17 00:50:52;;;;;;;;;20.25;19.00;;;;;17.56;56.52;101445.94;5057424;28;45602;-86
2021/08/17 00:53:17;;;;;;;;;20.00;17.25;;;;;17.55;56.36;101449.53;5061648;28;45732;-82
2021/08/17 00:55:43;;;;;;;;;22.00;17.75;;;;;17.58;56.69;101451.94;5062542;28;45578;-85
2021/08/17 00:58:08;;;;;;;;;16.50;15.00;;;;;17.49;56.90;101430.72;5057703;28;46791;-85
2021/08/17 01:00:34;;;;;;;;;25.00;19.00;;;;;17.50;56.89;101435.88;5064978;28;46425;-83
2021/08/17 01:02:59;;;;;;;;;20.75;18.75;;;;;17.54;56.74;101442.56;5044921;28;45634;-82
2021/08/17 01:05:28;;;;;;;;;19.25;17.50;;;;;17.31;57.25;101416.41;5065816;28;45346;-81
2021/08/17 01:07:54;;;;;;;;;19.00;16.00;;;;;17.48;56.86;101442.28;5064114;28;45665;-84
2021/08/17 01:10:20;;;;;;;;;17.25;16.25;;;;;17.20;57.02;101393.50;5063138;28;46176;-82
2021/08/17 01:12:46;;;;;;;;;18.75;17.25;;;;;17.43;57.30;101439.19;5060549;28;45558;-85
2021/08/17 01:15:14;;;;;;;;;21.00;19.00;;;;;17.35;57.57;101431.91;5060343;28;45596;-83
2021/08/17 01:17:40;;;;;;;;;19.50;16.50;;;;;17.27;57.17;101415.00;5049066;28;48380;-83
2021/08/17 01:20:12;;;;;;;;;20.75;16.00;;;;;17.35;57.51;101436.34;5062262;28;45510;-83
2021/08/17 01:22:39;;;;;;;;;20.75;17.75;;;;;17.32;57.53;101432.19;5060810;28;45689;-85
2021/08/17 01:25:05;;;;;;;;;17.75;16.00;;;;;17.32;57.14;101434.81;5058291;28;45476;-85
2021/08/17 01:27:31;;;;;;;;;20.25;18.00;;;;;17.33;57.39;101441.78;5054614;28;46389;-85
2021/08/17 01:29:56;;;;;;;;;18.75;15.50;;;;;17.33;57.13;101439.13;5054309;28;45613;-86
2021/08/17 01:32:21;;;;;;;;;23.25;19.00;;;;;17.32;57.29;101447.22;5036606;28;46077;-84
2021/08/17 01:34:47;;;;;;;;;21.00;17.75;;;;;17.26;57.76;101438.00;5054977;28;45670;-84
2021/08/17 01:37:12;;;;;;;;;15.00;14.25;;;;;17.27;57.43;101441.50;5054182;28;45515;-87
2021/08/17 01:39:37;;;;;;;;;17.75;17.50;;;;;17.29;57.87;101448.31;5070241;28;47394;-89
2021/08/17 01:42:03;;;;;;;;;19.00;18.75;;;;;17.27;57.57;101442.34;5055338;28;45524;-84
2021/08/17 01:44:29;;;;;;;;;22.00;18.25;;;;;17.21;57.59;101442.84;5037080;28;45452;-88
2021/08/17 01:50:16;;;;;;;;;18.50;15.00;;;;;17.24;57.88;101450.53;5055847;28;45562;-86
2021/08/17 01:52:42;;;;;;;;;19.75;16.25;;;;;17.11;57.90;101428.72;5054582;28;45970;-85
2021/08/17 01:55:08;;;;;;;;;17.75;16.75;;;;;17.20;57.80;101455.25;5054819;28;45543;-84
2021/08/17 01:57:43;;;;;;;;;17.50;17.50;;;;;17.10;58.15;101438.47;5036677;28;45587;-83
2021/08/17 02:00:11;;;;;;;;;17.75;15.25;;;;;17.15;57.67;101449.50;5055430;28;46599;-87
2021/08/17 02:02:37;;;;;;;;;21.00;16.75;;;;;17.05;57.78;101429.25;5054263;28;45746;-86
2021/08/17 02:05:04;;;;;;;;;18.50;16.00;;;;;17.07;58.15;101421.97;5054003;28;45625;-82
2021/08/17 02:07:29;;;;;;;;;15.25;13.25;;;;;17.06;57.96;101436.19;5056522;28;46610;-85
2021/08/17 02:09:55;;;;;;;;;18.25;16.25;;;;;17.06;58.18;101421.16;5055087;28;46151;-86
2021/08/17 02:12:20;;;;;;;;;17.25;14.00;;;;;16.95;58.26;101420.41;5060011;28;45507;-86
2021/08/17 02:14:45;;;;;;;;;17.00;15.50;;;;;17.01;58.63;101431.28;5063613;28;45481;-87
2021/08/17 02:20:33;;;;;;;;;15.25;13.50;;;;;16.94;58.91;101429.31;5069942;28;45990;-88
2021/08/17 02:22:58;;;;;;;;;19.25;15.75;;;;;16.89;58.83;101423.56;5064738;28;45701;-85
2021/08/17 02:25:24;;;;;;;;;19.00;16.00;;;;;16.84;58.76;101416.03;5071016;28;45523;-87
2021/08/17 02:27:49;;;;;;;;;21.75;19.25;;;;;16.79;58.97;101413.72;5070582;28;46801;-87
2021/08/17 02:30:15;;;;;;;;;18.25;16.25;;;;;16.64;59.12;101393.84;5069928;28;46251;-86
2021/08/17 02:32:40;;;;;;;;;20.25;18.00;;;;;16.67;59.04;101392.78;5068595;28;45610;-87
2021/08/17 02:35:08;;;;;;;;;15.75;15.25;;;;;16.58;59.04;101382.91;5063097;28;45451;-90
2021/08/17 02:37:33;;;;;;;;;18.00;16.75;;;;;16.83;59.27;101424.09;5055769;28;45540;-88
2021/08/17 02:40:00;;;;;;;;;17.25;14.25;;;;;16.74;58.86;101418.56;5054878;28;46310;-88
2021/08/17 02:42:26;;;;;;;;;18.00;15.00;;;;;16.50;59.30;101373.00;5055086;28;45633;-84
2021/08/17 02:44:51;;;;;;;;;16.50;14.00;;;;;16.44;59.18;101367.38;5055428;28;45578;-88
2021/08/17 02:50:38;;;;;;;;;16.25;13.75;;;;;16.75;59.13;101428.19;5056690;28;46045;-88
2021/08/17 02:53:03;;;;;;;;;18.00;16.25;;;;;16.43;59.38;101382.41;5057491;28;45619;-82
2021/08/17 02:55:29;;;;;;;;;15.75;14.50;;;;;16.74;59.17;101434.44;5057418;28;45724;-86
2021/08/17 02:57:59;;;;;;;;;22.00;14.00;;;;;16.69;59.33;101425.22;5058241;28;46587;-84
2021/08/17 03:00:24;;;;;;;;;20.00;15.00;;;;;16.72;59.54;101427.63;5065210;28;45597;-88
2021/08/17 03:02:50;;;;;;;;;17.75;15.50;;;;;16.55;59.63;101394.59;5075508;28;45451;-81
2021/08/17 03:05:15;;;;;;;;;18.50;17.50;;;;;16.69;59.52;101414.63;5065918;28;45538;-92
2021/08/17 03:07:54;;;;;;;;;16.75;14.75;;;;;16.70;59.46;101419.81;5075127;28;46667;-87
2021/08/17 03:10:23;;;;;;;;;19.50;18.00;;;;;16.74;59.80;101434.44;5059119;28;45750;-87
2021/08/17 03:12:49;;;;;;;;;19.50;18.00;;;;;16.73;59.43;101427.47;5057887;28;45665;-86
2021/08/17 03:21:39;;;;;;;;;16.25;14.25;;;;;16.67;59.52;101406.84;5056765;28;46241;-88
2021/08/17 03:24:05;;;;;;;;;18.25;13.75;;;;;16.72;59.41;101424.97;5057627;28;45581;-89
2021/08/17 03:26:30;;;;;;;;;17.50;13.50;;;;;16.53;59.60;101393.03;5057477;28;45613;-87
2021/08/17 03:28:55;;;;;;;;;16.00;14.00;;;;;16.53;59.68;101398.34;5057104;28;45885;-87
2021/08/17 03:31:21;;;;;;;;;12.50;12.25;;;;;16.59;59.86;101409.28;5057298;28;45614;-86
2021/08/17 03:33:46;;;;;;;;;14.00;13.50;;;;;16.58;59.86;101412.84;5057560;28;45768;-88
2021/08/17 03:36:12;;;;;;;;;18.00;16.00;;;;;16.44;59.78;101402.59;5060364;28;45682;-89
2021/08/17 03:38:38;;;;;;;;;17.00;16.00;;;;;16.52;60.42;101418.66;5056839;28;46460;-85
2021/08/17 03:41:04;;;;;;;;;13.75;13.75;;;;;16.43;60.13;101410.66;5056893;28;46651;-89
2021/08/17 03:43:31;;;;;;;;;14.75;13.00;;;;;16.33;60.34;101413.22;5044267;28;45961;-89
2021/08/17 03:45:57;;;;;;;;;15.25;14.25;;;;;16.41;60.20;101425.81;5046284;28;45504;-91
2021/08/17 03:48:23;;;;;;;;;15.50;13.00;;;;;16.36;60.32;101415.59;5044850;28;45606;-91
2021/08/17 03:50:48;;;;;;;;;16.75;12.50;;;;;16.30;60.33;101414.28;5062197;28;46039;-90
2021/08/17 03:53:14;;;;;;;;;23.75;17.50;;;;;16.29;60.47;101420.56;5065852;28;45496;-91
2021/08/17 03:55:39;;;;;;;;;16.50;15.50;;;;;16.28;60.95;101420.69;5064473;28;45628;-91
2021/08/17 03:58:05;;;;;;;;;14.50;13.00;;;;;16.25;60.76;101415.63;5064200;28;45565;-82
2021/08/17 04:00:32;;;;;;;;;18.00;16.00;;;;;16.20;60.61;101415.19;5061925;28;46222;-87
2021/08/17 04:02:59;;;;;;;;;22.00;17.25;;;;;16.19;60.78;101408.22;5059513;28;45727;-88
2021/08/17 04:05:25;;;;;;;;;15.50;12.00;;;;;16.23;60.56;101417.59;5073020;28;45814;-86
2021/08/17 04:07:51;;;;;;;;;18.25;14.50;;;;;16.20;60.79;101416.03;5057700;28;46714;-85
2021/08/17 04:10:17;;;;;;;;;10.75;8.75;;;;;16.00;60.79;101390.38;5057368;28;46184;-84
2021/08/17 04:12:42;;;;;;;;;17.25;16.75;;;;;16.00;60.85;101385.09;5055940;28;45479;-85
2021/08/17 04:15:09;;;;;;;;;18.25;12.25;;;;;16.18;60.86;101419.78;5038860;28;45468;-87
2021/08/17 04:20:56;;;;;;;;;17.25;15.25;;;;;16.07;61.16;101398.66;5057189;28;45865;-89
2021/08/17 04:23:21;;;;;;;;;16.00;14.75;;;;;16.12;61.51;101409.69;5056776;28;45483;-80
2021/08/17 04:25:48;;;;;;;;;18.00;16.25;;;;;16.08;61.40;101408.28;5072168;28;45597;-83
2021/08/17 04:28:13;;;;;;;;;19.25;15.00;;;;;16.07;61.43;101406.59;5056283;28;45690;-84
2021/08/17 04:30:39;;;;;;;;;16.25;14.50;;;;;16.04;61.17;101407.66;5056067;28;45616;-89
2021/08/17 04:33:04;;;;;;;;;17.75;15.00;;;;;16.05;61.36;101413.78;5056269;28;45826;-85
2021/08/17 04:35:30;;;;;;;;;18.50;14.75;;;;;15.97;61.49;101401.22;5056501;28;45723;-87
2021/08/17 04:37:55;;;;;;;;;16.25;15.00;;;;;15.95;61.71;101403.13;5056242;28;45733;-87
2021/08/17 04:40:21;;;;;;;;;11.75;10.25;;;;;15.88;61.77;101396.66;5056155;28;46460;-86
2021/08/17 04:42:47;;;;;;;;;16.00;14.50;;;;;15.83;61.99;101397.03;5056442;28;45692;-86
2021/08/17 04:45:13;;;;;;;;;16.50;13.00;;;;;15.88;62.01;101396.66;5056425;28;45494;-86
2021/08/17 04:51:00;;;;;;;;;16.25;14.00;;;;;15.77;62.04;101391.38;5055267;28;45723;-86
2021/08/17 04:53:27;;;;;;;;;15.25;14.00;;;;;15.74;61.93;101395.13;5055710;28;45630;-87
2021/08/17 04:55:53;;;;;;;;;14.00;12.00;;;;;15.79;62.52;101413.25;5056651;28;45678;-86
2021/08/17 04:58:18;;;;;;;;;16.50;14.75;;;;;15.77;62.11;101401.94;5056768;28;45706;-87
2021/08/17 05:00:47;;;;;;;;;19.00;15.00;;;;;15.67;62.39;101387.81;5057433;28;47096;-84
2021/08/17 05:06:47;;;;;;;;;19.75;18.00;;;;;15.69;62.30;101396.47;5062242;28;45717;-86
2021/08/17 05:09:13;;;;;;;;;14.50;13.75;;;;;15.77;62.35;101409.88;5065976;28;46006;-87
2021/08/17 05:11:38;;;;;;;;;20.50;16.00;;;;;15.77;62.59;101413.38;5061753;28;45590;-83
2021/08/17 05:14:06;;;;;;;;;14.50;14.00;;;;;15.72;62.77;101404.13;5060004;28;45371;-85
2021/08/17 05:16:31;;;;;;;;;17.75;13.50;;;;;15.79;62.42;101414.09;5057445;28;45547;-84
2021/08/17 05:18:57;;;;;;;;;14.50;13.50;;;;;15.80;62.48;101423.72;5071159;28;48607;-86
2021/08/17 05:21:22;;;;;;;;;16.50;12.50;;;;;15.81;62.70;101422.75;5055110;28;45663;-83
2021/08/17 05:23:48;;;;;;;;;15.50;14.00;;;;;15.82;62.69;101429.69;5055307;28;45538;-83
2021/08/17 05:26:13;;;;;;;;;13.00;12.75;;;;;15.62;62.52;101392.59;5057773;28;45815;-83
2021/08/17 05:28:39;;;;;;;;;13.00;12.75;;;;;15.85;62.52;101431.25;5064995;28;45970;-84
2021/08/17 05:31:04;;;;;;;;;15.75;12.00;;;;;15.66;62.42;101399.31;5062146;28;45607;-83
2021/08/17 05:33:29;;;;;;;;;15.50;14.25;;;;;15.86;62.22;101427.66;5070336;28;45461;-82
2021/08/17 05:35:55;;;;;;;;;17.75;16.50;;;;;15.78;62.42;101427.41;5070309;28;45539;-81
2021/08/17 05:38:20;;;;;;;;;18.00;12.75;;;;;15.72;62.39;101404.97;5070625;28;46807;-82
2021/08/17 05:40:46;;;;;;;;;14.25;12.25;;;;;15.88;62.66;101449.50;5070989;28;45936;-80
2021/08/17 05:43:11;;;;;;;;;18.75;14.75;;;;;15.86;62.77;101446.16;5068772;28;45443;-79
2021/08/17 05:45:36;;;;;;;;;14.00;12.00;;;;;15.75;62.73;101431.16;5068858;28;45571;-82
2021/08/17 05:51:23;;;;;;;;;16.00;12.75;;;;;15.72;62.93;101427.91;5068893;28;45608;-83
2021/08/17 05:53:50;;;;;;;;;12.25;12.00;;;;;15.79;62.74;101443.16;5070906;28;45562;-82
2021/08/17 05:56:16;;;;;;;;;14.50;14.25;;;;;15.77;62.83;101441.59;5077291;28;44932;-84
2021/08/17 05:58:41;;;;;;;;;18.25;16.25;;;;;15.83;62.89;101451.66;5083412;28;45497;-89
2021/08/17 06:07:17;;;;;;;;;17.75;14.50;;;;;15.60;63.13;101408.56;5060649;28;45865;-89
2021/08/17 06:09:42;;;;;;;;;14.00;12.25;;;;;15.72;63.12;101441.94;5059235;28;45666;-82
2021/08/17 06:12:08;;;;;;;;;14.00;11.25;;;;;15.76;63.30;101440.75;5054656;28;45470;-88
2021/08/17 06:14:33;;;;;;;;;15.00;12.00;;;;;15.81;62.97;101450.97;5070752;28;45440;-78
2021/08/17 06:16:58;;;;;;;;;16.25;14.00;;;;;15.88;63.39;101465.34;5071211;28;45460;-80
2021/08/17 06:19:24;;;;;;;;;19.50;16.75;;;;;15.89;63.13;101459.97;5079143;28;45519;-82
2021/08/17 06:21:51;;;;;;;;;18.50;14.25;;;;;15.90;63.26;101463.44;5081656;28;45236;-87
2021/08/17 06:24:16;;;;;;;;;14.75;13.25;;;;;15.92;63.05;101467.63;5081693;28;45056;-78
2021/08/17 06:26:41;;;;;;;;;16.00;12.00;;;;;15.72;63.16;101428.75;5084060;28;45567;-87
2021/08/17 06:29:07;;;;;;;;;18.25;14.25;;;;;15.88;63.04;101455.63;5085850;28;45424;-85
2021/08/17 06:31:33;;;;;;;;;14.75;14.00;;;;;16.02;63.11;101473.03;5065985;28;45768;-86
2021/08/17 06:34:00;;;;;;;;;18.75;13.75;;;;;16.03;63.20;101463.31;5063120;28;45692;-90
2021/08/17 06:36:28;;;;;;;;;16.75;13.25;;;;;16.04;63.24;101455.25;5048929;28;45771;-93
2021/08/17 06:38:53;;;;;;;;;18.50;16.25;;;;;15.79;63.19;101411.44;5067755;28;45425;-89
2021/08/17 06:41:19;;;;;;;;;20.50;14.50;;;;;15.88;63.00;101421.28;5062335;28;45488;-86
2021/08/17 06:43:44;;;;;;;;;11.75;11.50;;;;;16.02;63.13;101436.03;5059277;28;45650;-91
2021/08/17 06:46:11;;;;;;;;;13.50;12.00;;;;;16.17;62.95;101466.53;5060239;28;45613;-88
2021/08/17 06:51:58;;;;;;;;;15.25;12.75;;;;;16.16;63.06;101438.41;5059081;28;45718;-88
2021/08/17 06:54:23;;;;;;;;;16.25;13.50;;;;;16.28;62.81;101450.63;5075791;28;45544;-89
2021/08/17 06:56:49;;;;;;;;;13.50;12.50;;;;;16.38;62.87;101454.19;5059569;28;45530;-84
2021/08/17 06:59:14;;;;;;;;;14.00;11.50;;;;;16.39;62.79;101449.75;5057621;28;46283;-87
2021/08/17 07:01:40;;;;;;;;;13.00;11.75;;;;;16.38;62.85;101440.13;5064487;28;45703;-83
2021/08/17 07:04:05;;;;;;;;;16.25;12.75;;;;;16.59;62.88;101464.00;5061590;28;45667;-82
2021/08/17 07:06:34;;;;;;;;;14.50;12.00;;;;;16.65;62.96;101464.34;5074634;28;45066;-85
2021/08/17 07:09:01;;;;;;;;;13.25;11.25;;;;;16.68;62.99;101450.84;5076282;28;45383;-88
2021/08/17 07:11:27;;;;;;;;;15.25;13.50;;;;;16.55;62.50;101414.94;5070648;28;46047;-88
2021/08/17 07:13:52;;;;;;;;;19.00;14.75;;;;;16.73;62.56;101439.91;5068399;28;45543;-82
2021/08/17 07:16:18;;;;;;;;;12.50;11.50;;;;;16.70;62.32;101430.41;5074498;28;45424;-85
2021/08/17 07:22:05;;;;;;;;;13.75;11.75;;;;;16.91;62.63;101463.97;5070980;28;45520;-84
2021/08/17 07:24:30;;;;;;;;;16.00;14.50;;;;;16.99;62.29;101464.19;5067791;28;45573;-84
2021/08/17 07:26:56;;;;;;;;;14.25;12.00;;;;;17.03;62.77;101469.06;5047291;28;45891;-83
2021/08/17 07:29:23;;;;;;;;;14.00;13.00;;;;;16.94;62.32;101439.91;5064827;28;45472;-85
2021/08/17 07:31:49;;;;;;;;;15.25;13.25;;;;;17.12;62.15;101473.59;5065463;28;46514;-86
2021/08/17 07:34:14;;;;;;;;;13.50;13.50;;;;;17.03;62.39;101450.53;5061458;28;45747;-85
2021/08/17 07:36:40;;;;;;;;;12.75;11.75;;;;;17.09;62.40;101454.47;5056616;28;45717;-85
2021/08/17 07:39:08;;;;;;;;;17.75;11.50;;;;;17.15;62.20;101454.81;5057480;28;45700;-86
2021/08/17 07:41:34;;;;;;;;;14.75;13.75;;;;;17.31;62.56;101474.69;5063041;28;45512;-85
2021/08/17 07:44:00;;;;;;;;;10.75;9.75;;;;;17.29;62.44;101471.31;5066465;28;45537;-82
2021/08/17 07:46:25;;;;;;;;;15.75;12.00;;;;;17.12;61.97;101433.03;5078963;28;45446;-81
2021/08/17 07:52:12;;;;;;;;;16.25;13.50;;;;;17.37;61.76;101452.97;5068723;28;45250;-83
2021/08/17 07:54:37;;;;;;;;;13.50;12.75;;;;;17.50;62.23;101470.31;5058384;28;45685;-85
2021/08/17 07:57:04;;;;;;;;;11.25;10.25;;;;;17.48;61.77;101460.84;5058025;28;45571;-81
2021/08/17 07:59:29;;;;;;;;;15.50;12.00;;;;;17.56;61.60;101476.88;5058175;28;45539;-81
2021/08/17 08:01:55;;;;;;;;;12.00;11.00;;;;;17.38;62.05;101438.75;5056287;28;45537;-81
2021/08/17 08:04:20;;;;;;;;;11.00;10.25;;;;;17.46;61.97;101450.34;5056209;28;45645;-81
2021/08/17 08:06:45;;;;;;;;;11.75;10.25;;;;;17.59;61.61;101471.34;5056710;28;45572;-82
2021/08/17 08:09:11;;;;;;;;;14.00;12.00;;;;;17.63;61.96;101475.44;5055952;28;45557;-83
2021/08/17 08:11:36;;;;;;;;;13.25;11.00;;;;;17.42;62.07;101446.31;5056727;28;45459;-82
2021/08/17 08:14:02;;;;;;;;;14.50;12.25;;;;;17.65;61.63;101470.00;5037479;28;45469;-82
2021/08/17 08:16:27;;;;;;;;;12.50;11.75;;;;;17.68;61.91;101469.72;5037696;28;45901;-83
2021/08/17 08:22:14;;;;;;;;;11.25;10.50;;;;;17.78;61.91;101474.09;5055342;28;45896;-80
2021/08/17 08:24:40;;;;;;;;;14.75;12.00;;;;;17.79;61.55;101475.78;5055850;28;45527;-82
2021/08/17 08:27:05;;;;;;;;;14.75;12.75;;;;;17.87;61.44;101491.00;5055696;28;45527;-81
2021/08/17 08:29:31;;;;;;;;;12.00;11.00;;;;;17.80;61.55;101476.63;5055308;28;45620;-82
2021/08/17 08:31:57;;;;;;;;;11.75;9.00;;;;;17.91;61.56;101484.47;5054967;28;45625;-83
2021/08/17 08:34:22;;;;;;;;;13.75;11.25;;;;;17.86;61.82;101481.38;5055486;28;45546;-82
2021/08/17 08:36:49;;;;;;;;;13.00;11.00;;;;;17.93;61.46;101486.00;5055391;28;45625;-81
2021/08/17 08:39:17;;;;;;;;;12.75;11.50;;;;;17.99;61.38;101485.47;5070502;28;47423;-81
2021/08/17 08:41:45;;;;;;;;;12.00;11.75;;;;;17.91;61.71;101463.25;5055548;28;46075;-80
2021/08/17 08:44:10;;;;;;;;;10.25;10.00;;;;;18.10;61.67;101483.66;5054884;28;45792;-78
2021/08/17 08:46:36;;;;;;;;;12.00;10.75;;;;;18.17;61.19;101474.19;5054897;28;45895;-80
2021/08/17 08:52:22;;;;;;;;;9.25;8.00;;;;;18.28;61.05;101482.03;5054597;28;46104;-81
2021/08/17 08:54:48;;;;;;;;;11.00;9.75;;;;;18.41;61.52;101483.44;5054781;28;45628;-80
2021/08/17 08:57:14;;;;;;;;;10.00;9.00;;;;;18.39;61.00;101474.78;5055185;28;45760;-81
2021/08/17 08:59:41;;;;;;;;;12.00;10.00;;;;;18.50;60.94;101468.53;5069970;28;47432;-81
2021/08/17 09:09:11;;;;;;;;;11.25;8.25;;;;;18.72;60.94;101481.56;5054662;28;45789;-79
2021/08/17 09:11:40;;;;;;;;;8.00;8.00;;;;;18.70;60.24;101480.84;5054574;28;46455;-80
2021/08/17 09:14:26;;;;;;;;;9.50;8.25;;;;;18.79;60.46;101487.94;5055579;28;46181;-79
2021/08/17 09:16:55;;;;;;;;;9.00;8.50;;;;;18.82;59.96;101469.09;5058387;28;45744;-82
2021/08/17 09:22:42;;;;;;;;;11.25;8.00;;;;;18.90;59.96;101479.00;5061221;28;45436;-81
2021/08/17 09:25:08;;;;;;;;;8.75;7.50;;;;;18.86;59.83;101462.53;5057432;28;45854;-82
2021/08/17 09:27:36;;;;;;;;;10.00;8.25;;;;;18.85;59.44;101462.66;5054261;28;45476;-81
2021/08/17 09:30:11;;;;;;;;;12.50;11.00;;;;;18.75;59.18;101437.94;5054520;28;45728;-82
2021/08/17 09:32:56;;;;;;;;;8.75;7.25;;;;;18.97;59.14;101469.50;5054607;28;46654;-82
2021/08/17 09:35:24;;;;;;;;;7.25;6.25;;;;;18.97;58.93;101476.63;5035854;28;47664;-82
2021/08/17 09:38:11;;;;;;;;;9.00;8.00;;;;;18.97;58.79;101469.50;5054360;28;45754;-81
2021/08/17 09:40:38;;;;;;;;;9.00;7.50;;;;;18.97;58.24;101468.66;5054618;28;45508;-81
2021/08/17 09:43:18;;;;;;;;;11.00;9.00;;;;;18.91;58.56;101467.41;5054126;28;45567;-83
2021/08/17 09:45:45;;;;;;;;;8.75;8.00;;;;;18.98;58.41;101471.19;5054448;28;45986;-83
2021/08/17 09:48:13;;;;;;;;;9.50;9.00;;;;;19.00;58.28;101468.38;5053898;28;45539;-83
2021/08/17 09:50:41;;;;;;;;;11.00;8.75;;;;;19.03;57.82;101465.44;5054341;28;45715;-82
2021/08/17 09:53:14;;;;;;;;;7.00;7.00;;;;;19.07;58.20;101469.47;5054133;28;45697;-82
2021/08/17 09:55:52;;;;;;;;;10.75;8.75;;;;;19.10;57.92;101464.72;5053977;28;46450;-82
2021/08/17 09:58:26;;;;;;;;;11.75;8.75;;;;;19.15;57.68;101464.31;5054001;28;45846;-81
2021/08/17 10:00:55;;;;;;;;;5.75;5.00;;;;;19.12;57.30;101457.44;5058102;28;45702;-82
2021/08/17 10:03:21;;;;;;;;;6.75;6.50;;;;;19.18;57.71;101462.19;5039262;28;48021;-82
2021/08/17 10:05:47;;;;;;;;;9.00;8.00;;;;;19.16;57.48;101455.34;5057587;28;46025;-82
2021/08/17 10:08:13;;;;;;;;;8.00;7.00;;;;;19.17;57.37;101452.53;5057053;28;45460;-82
2021/08/17 10:10:46;;;;;;;;;9.00;8.25;;;;;19.34;56.56;101458.91;5057704;28;45411;-85
2021/08/17 10:13:13;;;;;;;;;6.00;5.00;;;;;19.15;56.93;101412.00;5039336;28;46472;-84
2021/08/17 10:15:40;;;;;;;;;9.25;6.50;;;;;19.45;56.61;101447.31;5038997;28;47566;-82
2021/08/17 10:18:07;;;;;;;;;8.00;7.00;;;;;19.52;56.41;101457.22;5057274;28;45717;-82
2021/08/17 10:20:36;;;;;;;;;8.75;7.75;;;;;19.57;56.18;101452.31;5057660;28;45639;-82
2021/08/17 10:23:02;;;;;;;;;9.00;7.00;;;;;19.56;56.22;101439.16;5057885;28;47033;-83
2021/08/17 10:25:42;;;;;;;;;8.00;6.50;;;;;19.65;55.36;101435.59;5057208;28;45620;-81
2021/08/17 10:28:33;;;;;;;;;7.00;6.25;;;;;19.73;54.74;101449.00;5057325;28;45808;-82
2021/08/17 10:31:18;;;;;;;;;6.75;5.75;;;;;19.76;55.01;101442.56;5039038;28;45941;-82
2021/08/17 10:33:50;;;;;;;;;8.50;6.75;;;;;19.80;54.76;101434.16;5056872;28;46368;-80
2021/08/17 10:36:32;;;;;;;;;7.00;6.00;;;;;19.84;54.56;101440.00;5057502;28;45613;-81
2021/08/17 10:38:59;;;;;;;;;8.00;6.75;;;;;19.78;54.79;101428.13;5057078;28;45534;-83
2021/08/17 10:41:29;;;;;;;;;7.25;6.50;;;;;19.84;54.13;101432.00;5057533;28;45640;-82
2021/08/17 10:43:55;;;;;;;;;8.00;7.00;;;;;19.93;54.02;101434.59;5072364;28;47556;-81
2021/08/17 10:46:43;;;;;;;;;9.00;7.00;;;;;19.84;54.39;101424.88;5057227;28;46221;-81
2021/08/17 10:49:48;;;;;;;;;10.50;9.75;;;;;19.95;54.29;101427.31;5056992;28;45519;-81
2021/08/17 10:52:31;;;;;;;;;7.75;7.50;;;;;19.95;54.26;101430.00;4998087;28;46014;-82
2021/08/17 10:55:34;;;;;;;;;11.75;10.25;;;;;19.96;54.50;101425.50;5014509;28;46528;-81
2021/08/17 10:58:04;;;;;;;;;10.50;9.25;;;;;19.89;54.34;101419.09;5014435;28;46023;-82
2021/08/17 11:00:48;;;;;;;;;2.75;2.00;;;;;19.92;54.00;101438.25;5014826;28;45720;-84
2021/08/17 11:06:42;;;;;;;;;9.75;9.50;;;;;19.56;54.16;101383.31;5016232;28;46099;-85
2021/08/17 11:09:30;;;;;;;;;7.00;7.00;;;;;19.63;54.33;101387.91;5017652;28;46457;-90
2021/08/17 11:11:58;;;;;;;;;7.25;7.00;;;;;19.88;54.22;101425.41;4999413;28;46040;-87
2021/08/17 11:14:26;;;;;;;;;8.50;8.50;;;;;19.76;54.29;101400.03;5000031;28;45989;-88
2021/08/17 11:16:55;;;;;;;;;9.25;9.00;;;;;19.91;53.81;101422.47;4998212;28;47288;-81
2021/08/17 11:22:41;;;;;;;;;12.50;12.50;;;;;19.96;54.11;101407.72;5030563;28;45801;-81
2021/08/17 11:25:08;;;;;;;;;8.50;7.75;;;;;20.01;54.03;101410.78;5058826;28;45459;-83
2021/08/17 11:27:39;;;;;;;;;10.75;10.00;;;;;20.03;53.79;101411.44;5072051;28;47601;-83
2021/08/17 11:30:12;;;;;;;;;8.00;8.00;;;;;20.06;53.85;101410.31;5060815;28;46157;-86
2021/08/17 11:32:43;;;;;;;;;6.50;4.50;;;;;20.07;54.11;101415.50;5062682;28;45715;-83
2021/08/17 11:38:30;;;;;;;;;8.00;7.25;;;;;20.09;53.97;101402.84;5062345;28;45582;-83
2021/08/17 11:40:55;;;;;;;;;9.25;8.50;;;;;20.18;53.71;101413.59;5062329;28;45481;-86
2021/08/17 11:43:21;;;;;;;;;9.25;8.00;;;;;20.27;53.12;101418.84;5061289;28;45485;-83
2021/08/17 11:45:46;;;;;;;;;11.00;8.00;;;;;20.25;53.34;101410.16;5058026;28;45599;-84
2021/08/17 11:48:11;;;;;;;;;7.00;5.00;;;;;20.26;53.19;101413.66;5056068;28;45432;-84
2021/08/17 11:50:39;;;;;;;;;7.75;7.50;;;;;20.21;53.17;101402.63;5056359;28;45618;-84
2021/08/17 11:53:04;;;;;;;;;7.00;6.25;;;;;20.26;53.22;101417.16;5056619;28;45559;-84
2021/08/17 11:55:33;;;;;;;;;5.50;5.50;;;;;20.23;52.98;101414.81;5056226;28;45531;-80
2021/08/17 11:58:00;;;;;;;;;5.00;5.00;;;;;20.22;52.91;101417.63;5055866;28;46746;-85
2021/08/17 12:00:28;;;;;;;;;7.50;7.00;;;;;20.14;53.25;101415.69;5056189;28;46333;-82
2021/08/17 12:03:02;;;;;;;;;6.00;5.25;;;;;20.13;52.89;101415.88;5056846;28;45516;-80
2021/08/17 12:08:49;;;;;;;;;7.75;6.00;;;;;20.08;52.79;101411.81;5053964;28;45668;-79
2021/08/17 12:11:20;;;;;;;;;6.50;6.00;;;;;20.08;52.73;101403.84;5055592;28;46635;-81
2021/08/17 12:13:47;;;;;;;;;6.75;6.00;;;;;20.08;52.66;101403.84;5055607;28;45608;-79
2021/08/17 12:16:18;;;;;;;;;4.50;4.00;;;;;20.04;52.54;101396.31;5055601;28;45578;-79
2021/08/17 12:18:53;;;;;;;;;6.50;4.50;;;;;20.03;52.45;101395.47;5055823;28;45523;-80
2021/08/17 12:21:22;;;;;;;;;6.50;5.00;;;;;20.03;52.62;101394.63;5056135;28;46028;-81
2021/08/17 12:23:48;;;;;;;;;6.00;6.00;;;;;20.02;52.65;101391.16;5057121;28;45693;-84
2021/08/17 12:26:30;;;;;;;;;4.00;4.00;;;;;20.03;52.61;101394.63;5056794;28;45750;-85
2021/08/17 12:29:07;;;;;;;;;5.75;5.75;;;;;20.00;52.58;101390.47;5059043;28;46527;-81
2021/08/17 12:31:35;;;;;;;;;6.00;6.00;;;;;20.03;52.69;101386.66;5056682;28;46190;-80
2021/08/17 12:34:08;;;;;;;;;5.25;5.00;;;;;20.00;52.78;101371.84;5055926;28;45785;-81
2021/08/17 12:36:43;;;;;;;;;4.50;4.50;;;;;20.12;52.26;101391.09;5056280;28;45611;-80
2021/08/17 12:39:10;;;;;;;;;4.25;3.75;;;;;20.16;51.88;101391.63;5055554;28;46299;-78
2021/08/17 12:41:38;;;;;;;;;4.75;4.75;;;;;20.19;51.66;101380.69;5055692;28;45971;-80
2021/08/17 12:44:16;;;;;;;;;3.50;3.50;;;;;20.08;51.36;101366.59;5055554;28;45762;-78
2021/08/17 12:47:08;;;;;;;;;4.75;4.75;;;;;20.19;51.22;101399.31;5055652;28;45743;-81